Time;durP1;ratioP1;P1;durP2;ratioP2;P2;SDS_P1;SDS_P2;PMS_P1;PMS_P2;Temp;Humidity;BMP_temperature;BMP_pressure;BME280_temperature;BME280_humidity;BME280_pressure;Samples;Min_cycle;Max_cycle;Signal;HPM_P1;HPM_P2
2023/05/23 00:01:21;;;;;;;4.30;4.00;;;;;;;15.88;96.22;99211.38;5074766;28;20575;-68
2023/05/23 00:03:55;;;;;;;4.50;4.20;;;;;;;15.73;96.29;99203.00;5073087;27;20707;-69
2023/05/23 00:06:27;;;;;;;4.43;3.93;;;;;;;15.63;96.73;99202.81;5072427;28;20570;-69
2023/05/23 00:08:58;;;;;;;4.10;3.90;;;;;;;15.67;96.85;99201.28;5073253;28;20226;-69
2023/05/23 00:11:30;;;;;;;3.97;3.77;;;;;;;15.67;96.77;99203.13;5074462;28;20223;-67
2023/05/23 00:14:07;;;;;;;4.40;4.00;;;;;;;15.63;96.36;99205.47;5073876;28;20552;-68
2023/05/23 00:16:39;;;;;;;4.07;3.77;;;;;;;15.67;96.86;99203.13;5072791;28;20191;-67
2023/05/23 00:19:10;;;;;;;4.10;3.70;;;;;;;15.72;96.48;99212.09;5075558;28;20192;-68
2023/05/23 00:21:38;;;;;;;4.00;3.70;;;;;;;15.72;96.71;99196.03;5074642;28;20184;-67
2023/05/23 00:24:08;;;;;;;4.07;3.87;;;;;;;15.71;96.08;99189.06;5074497;28;20207;-68
2023/05/23 00:29:19;;;;;;;4.07;3.67;;;;;;;15.77;95.37;99201.47;5074712;28;20192;-67
2023/05/23 00:31:49;;;;;;;4.03;3.70;;;;;;;15.76;96.15;99197.19;5073746;28;20722;-67
2023/05/23 00:34:24;;;;;;;3.70;3.50;;;;;;;15.75;95.30;99190.22;5073667;28;20316;-67
2023/05/23 00:36:53;;;;;;;3.93;3.70;;;;;;;15.73;95.66;99197.66;5072347;28;20195;-67
2023/05/23 00:42:12;;;;;;;3.90;3.70;;;;;;;16.05;95.69;99186.50;5073835;28;20583;-67
2023/05/23 00:44:53;;;;;;;4.63;4.20;;;;;;;16.24;95.31;99182.56;5073947;28;20687;-68
2023/05/23 00:47:34;;;;;;;5.30;4.00;;;;;;;16.35;94.00;99189.75;5074003;28;20189;-68
2023/05/23 00:50:06;;;;;;;6.80;4.00;;;;;;;16.49;94.01;99199.19;5074023;28;20230;-69
2023/05/23 00:52:41;;;;;;;3.93;3.73;;;;;;;16.63;92.31;99193.28;5072815;28;20250;-68
2023/05/23 00:55:12;;;;;;;3.93;3.67;;;;;;;16.76;91.41;99192.13;5074140;28;20199;-68
2023/05/23 00:57:51;;;;;;;4.50;4.10;;;;;;;16.87;90.85;99199.31;5073495;28;20198;-68
2023/05/23 01:03:19;;;;;;;4.07;3.87;;;;;;;16.74;89.14;99194.25;5073648;28;20204;-69
2023/05/23 01:05:53;;;;;;;4.10;3.77;;;;;;;16.43;90.81;99192.91;5056938;28;20193;-68
2023/05/23 01:08:32;;;;;;;3.77;3.57;;;;;;;16.19;92.32;99195.88;5052461;28;20193;-68
2023/05/23 01:11:18;;;;;;;4.20;3.90;;;;;;;16.19;93.33;99193.19;5072999;28;20184;-68
2023/05/23 01:14:09;;;;;;;3.67;3.47;;;;;;;16.05;93.47;99184.63;5072981;28;20201;-68
2023/05/23 01:16:48;;;;;;;3.60;3.40;;;;;;;16.04;94.66;99182.22;5073968;28;20199;-68
2023/05/23 01:19:53;;;;;;;4.00;3.70;;;;;;;15.83;95.90;99180.97;5071724;28;20217;-68
2023/05/23 01:22:30;;;;;;;4.20;3.77;;;;;;;15.90;95.70;99179.00;5073183;28;20280;-68
2023/05/23 01:25:12;;;;;;;4.27;4.03;;;;;;;15.85;95.70;99185.03;5072480;28;20200;-68
2023/05/23 01:27:53;;;;;;;3.83;3.60;;;;;;;15.83;96.70;99181.81;5073688;28;20204;-68
2023/05/23 01:30:27;;;;;;;4.63;4.10;;;;;;;15.78;96.55;99179.03;5072971;28;20203;-68
2023/05/23 01:33:06;;;;;;;5.47;4.37;;;;;;;15.73;96.31;99175.44;5105588;28;20227;-68
2023/05/23 01:35:43;;;;;;;5.07;4.50;;;;;;;15.89;97.62;99175.47;5073185;28;20191;-68
2023/05/23 01:38:21;;;;;;;5.23;4.10;;;;;;;16.04;96.41;99177.66;5073352;28;20199;-68
2023/05/23 01:40:49;;;;;;;4.47;3.83;;;;;;;16.21;95.28;99172.34;5072644;28;20694;-68
2023/05/23 01:43:23;;;;;;;4.57;4.27;;;;;;;16.24;93.34;99172.69;5071696;28;20257;-68
2023/05/23 01:45:56;;;;;;;4.67;4.37;;;;;;;16.07;92.05;99152.25;5071947;28;20219;-68
2023/05/23 01:48:34;;;;;;;4.53;4.23;;;;;;;16.11;92.42;99177.50;5072901;28;20204;-67
2023/05/23 01:51:04;;;;;;;5.00;4.60;;;;;;;16.02;92.33;99181.63;5072356;28;20253;-69
2023/05/23 01:53:33;;;;;;;4.67;4.27;;;;;;;16.02;92.41;99179.75;5071579;28;20199;-69
2023/05/23 01:58:46;;;;;;;14.90;4.50;;;;;;;15.98;92.33;99172.44;5072691;28;20651;-68
2023/05/23 02:01:23;;;;;;;4.43;4.10;;;;;;;15.92;93.37;99176.06;5071365;28;20274;-68
2023/05/23 02:03:55;;;;;;;8.63;5.23;;;;;;;15.97;93.47;99166.28;5069477;28;20253;-68
2023/05/23 02:06:30;;;;;;;6.53;4.60;;;;;;;16.02;93.08;99168.22;5051419;28;20203;-68
2023/05/23 02:09:00;;;;;;;4.80;4.37;;;;;;;16.08;93.25;99178.78;5064057;28;20195;-68
2023/05/23 02:11:32;;;;;;;4.77;4.40;;;;;;;16.06;92.82;99172.06;5073117;28;20254;-68
2023/05/23 02:16:59;;;;;;;4.57;4.17;;;;;;;15.73;93.63;99180.78;5072482;28;20269;-68
2023/05/23 02:19:28;;;;;;;8.20;4.70;;;;;;;15.84;93.58;99178.06;5071899;28;20206;-69
2023/05/23 02:21:57;;;;;;;4.63;4.33;;;;;;;15.86;92.98;99173.28;5072359;28;20206;-69
2023/05/23 02:24:30;;;;;;;5.57;4.67;;;;;;;15.79;92.87;99169.94;5072529;28;20199;-69
2023/05/23 02:27:16;;;;;;;10.10;4.90;;;;;;;15.79;92.28;99169.94;5071110;28;20267;-69
2023/05/23 02:29:50;;;;;;;5.17;4.87;;;;;;;15.85;92.64;99176.22;5072175;28;20196;-69
2023/05/23 02:35:35;;;;;;;6.50;5.33;;;;;;;16.01;92.13;99180.00;5071768;28;20585;-69
2023/05/23 02:38:10;;;;;;;5.10;4.80;;;;;;;15.85;90.99;99174.31;5071703;28;20215;-69
2023/05/23 02:43:23;;;;;;;6.07;4.57;;;;;;;15.63;91.23;99176.03;5072006;28;20550;-69
2023/05/23 02:45:52;;;;;;;8.70;5.27;;;;;;;15.52;92.21;99173.38;5070070;28;20192;-69
2023/05/23 02:48:23;;;;;;;6.03;5.33;;;;;;;15.38;92.55;99163.94;5062567;28;20223;-69
2023/05/23 02:50:53;;;;;;;5.47;5.03;;;;;;;15.35;93.31;99167.91;5060164;28;20257;-69
2023/05/23 02:53:24;;;;;;;6.60;5.17;;;;;;;15.22;93.87;99173.47;5062261;28;20354;-69
2023/05/23 02:55:51;;;;;;;5.50;5.00;;;;;;;15.22;94.15;99168.13;5062325;28;20280;-69
2023/05/23 02:58:21;;;;;;;7.67;5.23;;;;;;;15.21;94.00;99171.88;5058661;28;20188;-69
2023/05/23 03:01:02;;;;;;;6.30;4.83;;;;;;;15.08;94.30;99169.41;5071536;28;20558;-68
2023/05/23 03:03:35;;;;;;;5.70;5.10;;;;;;;14.96;94.70;99165.09;5068308;28;20188;-69
2023/05/23 03:06:21;;;;;;;5.90;4.83;;;;;;;14.95;95.23;99166.16;5071019;28;20643;-69
2023/05/23 03:08:49;;;;;;;6.73;5.03;;;;;;;14.93;95.27;99168.22;5070387;28;20233;-69
2023/05/23 03:11:22;;;;;;;5.03;4.53;;;;;;;15.05;97.60;99161.84;5071353;28;20200;-69
2023/05/23 03:13:53;;;;;;;6.23;5.17;;;;;;;14.99;95.82;99162.78;5069560;28;20192;-69
2023/05/23 03:16:24;;;;;;;5.60;5.17;;;;;;;15.15;97.04;99163.97;5060913;28;20667;-69
2023/05/23 03:18:54;;;;;;;5.87;5.57;;;;;;;15.24;94.54;99167.91;5075903;28;20679;-69
2023/05/23 03:21:23;;;;;;;6.20;5.70;;;;;;;15.26;95.99;99169.28;5075406;28;20199;-69
2023/05/23 03:23:50;;;;;;;16.73;5.57;;;;;;;15.39;93.61;99169.06;5075246;28;20265;-69
2023/05/23 03:26:17;;;;;;;9.63;5.43;;;;;;;15.30;93.33;99172.31;5096907;28;20192;-69
2023/05/23 03:28:46;;;;;;;8.83;5.30;;;;;;;15.27;92.96;99176.28;5066068;28;20196;-70
2023/05/23 03:31:28;;;;;;;5.53;5.13;;;;;;;15.15;92.76;99172.78;5064145;28;20200;-69
2023/05/23 03:34:00;;;;;;;5.70;4.13;;;;;;;15.08;92.87;99187.31;5065405;28;20292;-68
2023/05/23 03:36:27;;;;;;;6.07;4.60;;;;;;;15.06;94.31;99168.81;5073348;28;20199;-68
2023/05/23 03:38:54;;;;;;;9.47;5.53;;;;;;;15.20;94.74;99180.91;5074559;28;20566;-68
2023/05/23 03:41:26;;;;;;;11.87;5.37;;;;;;;15.37;92.85;99170.38;5074703;28;20192;-68
2023/05/23 03:43:54;;;;;;;5.97;5.07;;;;;;;15.43;92.10;99170.25;5073105;28;20210;-69
2023/05/23 03:46:34;;;;;;;7.33;5.30;;;;;;;15.32;91.19;99173.69;5073064;28;20258;-69
2023/05/23 03:49:06;;;;;;;6.77;4.83;;;;;;;15.18;91.51;99163.47;5073561;28;20566;-68
2023/05/23 03:51:47;;;;;;;5.77;4.50;;;;;;;15.20;90.78;99167.53;5074184;28;20192;-68
2023/05/23 03:54:23;;;;;;;6.73;4.50;;;;;;;15.27;90.91;99168.25;5072854;28;20219;-68
2023/05/23 03:56:58;;;;;;;7.20;4.50;;;;;;;15.47;89.87;99171.41;5072705;28;20668;-67
2023/05/23 03:59:29;;;;;;;10.47;3.80;;;;;;;15.85;89.11;99182.38;5074416;28;20583;-68
2023/05/23 04:02:00;;;;;;;4.00;3.80;;;;;;;16.13;86.44;99178.09;5075201;28;20278;-68
2023/05/23 04:04:28;;;;;;;23.60;4.47;;;;;;;16.25;85.10;99178.84;5062359;28;20687;-68
2023/05/23 04:09:43;;;;;;;15.07;3.50;;;;;;;16.99;83.58;99186.63;5070962;28;20207;-67
2023/05/23 04:12:24;;;;;;;9.40;3.67;;;;;;;18.00;81.31;99189.66;5074736;28;20230;-68
2023/05/23 04:14:51;;;;;;;6.77;3.30;;;;;;;18.80;74.05;99195.91;5073311;28;20625;-73
2023/05/23 04:17:20;;;;;;;10.63;3.50;;;;;;;19.89;72.34;99206.63;5073303;28;20205;-73
2023/05/23 04:19:46;;;;;;;6.60;3.10;;;;;;;20.54;66.83;99220.38;5074071;28;20667;-77
2023/05/23 04:22:13;;;;;;;5.07;2.87;;;;;;;21.07;65.22;99219.09;5074507;28;20205;-75
2023/05/23 04:24:40;;;;;;;5.93;3.17;;;;;;;21.85;64.67;99215.75;5068412;28;20234;-74
2023/05/23 04:27:07;;;;;;;3.50;3.27;;;;;;;22.54;58.39;99230.09;5057404;28;20738;-74
2023/05/23 04:29:34;;;;;;;7.60;3.30;;;;;;;23.11;56.62;99227.53;5052772;28;20543;-73
2023/05/23 04:32:01;;;;;;;3.33;3.03;;;;;;;23.20;56.15;99222.34;5053210;28;20199;-72
2023/05/23 04:34:32;;;;;;;5.83;3.10;;;;;;;23.49;55.90;99221.25;5054601;28;20211;-75
2023/05/23 04:37:00;;;;;;;5.60;3.47;;;;;;;23.93;54.26;99216.47;5055157;28;20195;-70
2023/05/23 04:39:28;;;;;;;6.73;3.00;;;;;;;24.36;52.88;99226.25;5058224;28;20279;-76
2023/05/23 04:41:55;;;;;;;7.40;3.07;;;;;;;25.40;51.99;99221.44;5073477;28;20287;-74
2023/05/23 04:44:22;;;;;;;4.60;2.63;;;;;;;26.19;48.63;99227.28;5073827;28;20281;-82
2023/05/23 04:46:49;;;;;;;5.83;2.70;;;;;;;26.63;45.23;99221.19;5068112;28;20195;-80
2023/05/23 04:49:16;;;;;;;5.73;2.90;;;;;;;26.95;44.71;99220.97;5065679;28;20200;-83
2023/05/23 04:51:44;;;;;;;14.00;2.83;;;;;;;27.44;44.47;99218.13;5063194;28;20212;-84
2023/05/23 04:54:11;;;;;;;6.50;3.53;;;;;;;27.88;42.58;99207.13;5072450;28;20243;-82
2023/05/23 04:56:38;;;;;;;10.10;3.23;;;;;;;28.15;42.73;99215.09;5096546;28;20211;-83
2023/05/23 04:59:07;;;;;;;12.40;3.83;;;;;;;28.62;40.90;99214.22;5064022;28;20263;-79
2023/05/23 05:01:34;;;;;;;27.07;4.47;;;;;;;28.42;40.78;99214.88;5074197;28;20192;-79
2023/05/23 05:04:03;;;;;;;8.50;3.03;;;;;;;28.53;40.36;99216.16;5075017;28;20241;-83
2023/05/23 05:06:40;;;;;;;4.60;3.20;;;;;;;28.52;41.61;99209.09;5073907;28;20188;-79
2023/05/23 05:09:34;;;;;;;7.17;3.17;;;;;;;28.29;39.79;99213.03;5073008;28;20659;-82
2023/05/23 05:12:11;;;;;;;3.47;2.80;;;;;;;28.19;40.01;99208.69;5073767;28;20187;-82
2023/05/23 05:14:43;;;;;;;6.47;2.97;;;;;;;27.60;41.98;99213.91;5074285;28;20186;-83
2023/05/23 05:17:21;;;;;;;2.97;2.77;;;;;;;26.96;44.26;99217.13;5073573;28;20191;-79
2023/05/23 05:19:53;;;;;;;6.27;3.07;;;;;;;26.82;42.95;99191.84;5065734;28;20191;-80
2023/05/23 05:22:24;;;;;;;10.40;3.07;;;;;;;26.85;45.12;99210.31;5063718;28;20224;-82
2023/05/23 05:25:08;;;;;;;6.47;2.73;;;;;;;26.91;45.52;99212.59;5064164;28;20664;-82
2023/05/23 05:27:49;;;;;;;3.63;3.10;;;;;;;27.29;43.29;99218.53;5071758;28;20642;-79
2023/05/23 05:33:23;;;;;;;5.97;3.13;;;;;;;26.40;45.60;99222.19;5074045;28;20423;-85
2023/05/23 05:35:53;;;;;;;8.23;2.97;;;;;;;26.27;46.62;99203.97;5065081;28;20642;-83
2023/05/23 05:38:23;;;;;;;4.33;3.57;;;;;;;25.89;46.43;99224.34;5064922;28;20192;-82
2023/05/23 05:41:07;;;;;;;3.47;3.27;;;;;;;25.34;48.25;99214.47;5073608;28;20253;-82
2023/05/23 05:46:24;;;;;;;6.20;4.17;;;;;;;24.45;51.10;99197.34;5070705;28;20198;-83
2023/05/23 05:49:08;;;;;;;15.17;4.07;;;;;;;24.82;51.55;99197.34;5063290;28;20289;-82
2023/05/23 05:51:41;;;;;;;7.53;3.30;;;;;;;24.94;50.75;99207.75;5072973;28;20273;-87
2023/05/23 05:57:20;;;;;;;4.40;3.53;;;;;;;23.57;52.63;99169.09;5070981;28;20190;-85
2023/05/23 05:59:59;;;;;;;23.57;3.90;;;;;;;23.41;54.05;99181.22;5074295;28;20194;-82
2023/05/23 06:02:29;;;;;;;30.40;4.80;;;;;;;23.14;55.89;99174.66;5076799;28;20216;-86
2023/05/23 06:05:00;;;;;;;17.27;4.00;;;;;;;23.09;56.12;99178.25;5042707;28;20192;-85
2023/05/23 06:07:39;;;;;;;9.27;3.63;;;;;;;23.30;54.53;99163.44;5076853;28;20193;-80
2023/05/23 06:10:33;;;;;;;6.03;3.97;;;;;;;23.94;53.75;99220.00;5079086;28;20181;-82
2023/05/23 06:13:04;;;;;;;6.77;4.00;;;;;;;24.14;52.87;99206.19;5077843;28;20228;-83
2023/05/23 06:15:47;;;;;;;4.83;3.50;;;;;;;24.07;53.83;99187.53;5077571;28;20279;-80
2023/05/23 06:18:14;;;;;;;35.00;6.30;;;;;;;24.57;52.84;99211.28;5074656;28;20575;-89
2023/05/23 06:20:41;;;;;;;5.57;3.70;;;;;;;25.07;50.98;99203.50;5071041;28;20251;-88
2023/05/23 06:23:16;;;;;;;25.13;5.57;;;;;;;25.40;49.81;99194.25;5071227;28;20681;-83
2023/05/23 06:28:47;;;;;;;9.00;4.30;;;;;;;25.52;49.15;99172.81;5082944;28;20199;-85
2023/05/23 06:31:28;;;;;;;10.77;4.80;;;;;;;25.76;48.50;99209.59;5078123;28;20613;-81
2023/05/23 06:33:57;;;;;;;6.23;3.63;;;;;;;25.58;48.96;99215.13;5073241;28;20231;-81
2023/05/23 06:36:26;;;;;;;6.93;3.67;;;;;;;25.34;48.16;99220.72;5074237;28;20667;-82
2023/05/23 06:39:00;;;;;;;6.70;3.60;;;;;;;25.10;48.99;99222.72;5084839;28;20195;-82
2023/05/23 06:41:35;;;;;;;9.10;3.93;;;;;;;25.12;50.32;99217.81;5088317;28;20251;-81
2023/05/23 06:44:15;;;;;;;28.83;5.30;;;;;;;25.00;50.00;99212.81;5087522;28;20203;-83
2023/05/23 06:46:47;;;;;;;7.57;3.63;;;;;;;24.95;49.96;99204.75;5088656;28;20201;-79
2023/05/23 06:49:22;;;;;;;4.13;3.83;;;;;;;24.79;50.31;99214.25;5090815;28;20241;-84
2023/05/23 06:54:47;;;;;;;7.03;3.37;;;;;;;25.11;49.82;99199.06;5089770;28;20283;-87
2023/05/23 06:57:15;;;;;;;8.20;3.27;;;;;;;25.52;49.22;99200.00;5088151;28;20203;-84
2023/05/23 06:59:51;;;;;;;13.97;5.00;;;;;;;25.87;48.60;99202.03;5086344;28;20274;-82
2023/05/23 07:02:19;;;;;;;20.43;5.27;;;;;;;25.97;48.95;99205.41;5068375;28;20296;-77
2023/05/23 07:04:49;;;;;;;6.77;3.43;;;;;;;26.11;48.58;99199.94;5068621;28;20261;-76
2023/05/23 07:07:16;;;;;;;3.70;3.23;;;;;;;26.03;48.16;99206.09;5050813;28;20280;-77
2023/05/23 07:09:45;;;;;;;8.17;3.80;;;;;;;26.36;48.17;99202.13;5068700;28;20200;-74
2023/05/23 07:12:12;;;;;;;4.40;3.97;;;;;;;27.02;48.46;99191.34;5065747;28;20637;-74
2023/05/23 07:14:39;;;;;;;20.43;4.47;;;;;;;27.63;44.63;99197.69;5068144;28;20216;-80
2023/05/23 07:17:07;;;;;;;13.97;4.20;;;;;;;27.96;44.00;99206.34;5067234;28;20290;-76
2023/05/23 07:19:35;;;;;;;5.80;3.73;;;;;;;28.06;44.49;99201.41;5070704;28;20196;-79
2023/05/23 07:22:03;;;;;;;5.03;3.73;;;;;;;28.10;42.42;99196.13;5061629;28;20211;-75
2023/05/23 07:24:33;;;;;;;6.00;4.00;;;;;;;28.10;42.18;99196.13;5088853;28;20247;-76
2023/05/23 07:27:00;;;;;;;7.90;4.00;;;;;;;27.95;42.75;99202.00;5053812;28;20234;-74
2023/05/23 07:29:28;;;;;;;9.20;4.37;;;;;;;27.91;43.28;99195.56;5054189;28;20192;-76
2023/05/23 07:31:57;;;;;;;19.63;5.07;;;;;;;27.99;43.42;99189.34;5066695;28;20628;-72
2023/05/23 07:34:27;;;;;;;17.07;5.10;;;;;;;28.14;44.20;99188.91;5062631;28;20291;-73
2023/05/23 07:36:53;;;;;;;10.30;4.03;;;;;;;28.31;42.90;99181.56;5065246;28;20648;-76
2023/05/23 07:39:22;;;;;;;7.23;3.67;;;;;;;28.46;42.77;99183.84;5067525;28;20192;-71
2023/05/23 07:41:49;;;;;;;7.30;3.20;;;;;;;28.55;42.33;99186.59;5066505;28;20192;-69
2023/05/23 07:44:16;;;;;;;10.70;3.67;;;;;;;28.55;41.06;99186.59;5066577;28;20626;-71
2023/05/23 07:46:43;;;;;;;32.33;5.10;;;;;;;28.68;42.42;99185.63;5067252;28;20192;-69
2023/05/23 07:49:10;;;;;;;14.37;5.20;;;;;;;29.17;41.43;99191.41;5066508;28;20235;-71
2023/05/23 07:51:38;;;;;;;3.80;3.43;;;;;;;29.61;40.57;99179.25;5068768;28;20256;-74
2023/05/23 07:54:05;;;;;;;4.53;3.63;;;;;;;29.99;37.96;99180.03;5060820;28;20793;-74
2023/05/23 07:56:32;;;;;;;5.57;3.90;;;;;;;29.71;38.27;99175.31;5068487;28;20725;-71
2023/05/23 07:59:01;;;;;;;7.90;3.57;;;;;;;29.96;37.45;99171.69;5062275;28;20261;-69
2023/05/23 08:01:28;;;;;;;13.40;4.57;;;;;;;30.09;36.70;99187.09;5067142;28;20204;-73
2023/05/23 08:03:56;;;;;;;5.00;3.60;;;;;;;29.90;37.15;99154.63;5073151;28;20687;-73
2023/05/23 08:06:22;;;;;;;62.63;7.27;;;;;;;30.06;37.58;99183.06;5063920;28;20196;-72
2023/05/23 08:08:51;;;;;;;19.00;4.63;;;;;;;30.49;37.61;99180.88;5065146;28;20204;-73
2023/05/23 08:11:18;;;;;;;11.07;3.97;;;;;;;30.63;35.33;99131.25;5065436;28;20196;-68
2023/05/23 08:13:45;;;;;;;15.83;4.33;;;;;;;31.00;34.17;99182.41;5069559;28;20220;-74
2023/05/23 08:16:13;;;;;;;7.83;3.33;;;;;;;31.09;36.26;99177.66;5069566;28;20196;-73
2023/05/23 08:18:40;;;;;;;9.10;3.83;;;;;;;30.93;36.18;99182.97;5071294;28;20295;-68
2023/05/23 08:21:08;;;;;;;6.87;3.77;;;;;;;30.95;34.05;99183.41;5062094;28;20683;-73
2023/05/23 08:23:34;;;;;;;4.57;3.93;;;;;;;31.17;34.94;99180.31;5051057;28;20758;-68
2023/05/23 08:26:03;;;;;;;45.00;6.10;;;;;;;31.40;35.75;99178.00;5071107;28;20196;-68
2023/05/23 08:28:29;;;;;;;8.90;4.07;;;;;;;31.59;36.93;99173.56;5072758;28;20200;-68
2023/05/23 08:30:57;;;;;;;29.60;5.57;;;;;;;31.05;34.09;99177.53;5071977;28;20200;-73
2023/05/23 08:33:23;;;;;;;5.50;3.73;;;;;;;30.85;35.15;99167.38;5071168;28;20273;-74
2023/05/23 08:35:50;;;;;;;8.57;4.03;;;;;;;31.18;34.96;99176.41;5072264;28;20198;-74
2023/05/23 08:38:20;;;;;;;5.83;3.53;;;;;;;31.51;33.25;99177.22;5072856;28;20195;-72
2023/05/23 08:40:50;;;;;;;4.10;3.73;;;;;;;31.57;31.84;99175.88;5070005;28;20187;-73
2023/05/23 08:43:19;;;;;;;3.80;3.60;;;;;;;31.28;32.64;99170.53;5070942;28;20246;-72
2023/05/23 08:45:47;;;;;;;4.00;3.30;;;;;;;31.25;32.43;99173.97;5072699;28;20207;-73
2023/05/23 08:48:15;;;;;;;3.17;2.97;;;;;;;31.00;32.85;99168.69;5072197;28;20250;-73
2023/05/23 08:50:46;;;;;;;4.13;3.83;;;;;;;31.17;31.59;99179.50;5073167;28;20671;-74
2023/05/23 08:53:19;;;;;;;17.80;4.07;;;;;;;31.38;31.91;99159.13;5072300;28;20187;-72
2023/05/23 08:55:46;;;;;;;3.90;3.33;;;;;;;31.63;30.99;99166.25;5072523;28;20192;-74
2023/05/23 08:58:14;;;;;;;14.10;3.50;;;;;;;31.89;30.85;99166.75;5071660;28;20281;-74
2023/05/23 09:00:42;;;;;;;7.20;3.10;;;;;;;32.21;30.02;99171.31;5072577;28;20266;-75
2023/05/23 09:03:10;;;;;;;3.13;2.97;;;;;;;32.39;29.70;99172.69;5072687;28;20204;-73
2023/05/23 09:05:37;;;;;;;6.97;3.23;;;;;;;32.12;28.69;99167.88;5072030;28;20211;-72
2023/05/23 09:08:03;;;;;;;12.77;4.50;;;;;;;32.17;30.08;99158.63;5071384;28;20639;-68
2023/05/23 09:10:30;;;;;;;10.07;3.93;;;;;;;32.47;28.52;99173.72;5072279;28;20664;-67
2023/05/23 09:12:58;;;;;;;6.47;3.87;;;;;;;31.87;28.23;99160.81;5072579;28;20247;-66
2023/05/23 09:15:26;;;;;;;5.43;3.70;;;;;;;31.39;29.98;99111.28;5070789;28;20741;-67
2023/05/23 09:17:59;;;;;;;3.80;2.93;;;;;;;31.46;29.02;99166.47;5072374;28;20192;-68
2023/05/23 09:20:27;;;;;;;4.93;4.43;;;;;;;31.24;30.81;99166.06;5072605;28;20188;-66
2023/05/23 09:22:55;;;;;;;273.43;226.10;;;;;;;31.08;31.89;99163.13;5071758;28;20265;-65
2023/05/23 09:25:22;;;;;;;38.50;30.93;;;;;;;31.05;32.38;99155.56;5071197;28;20636;-66
2023/05/23 09:27:49;;;;;;;50.10;36.23;;;;;;;30.97;30.17;99164.69;5071224;28;20249;-66
2023/05/23 09:30:17;;;;;;;112.37;14.20;;;;;;;30.82;29.99;99151.59;5071805;28;20196;-65
2023/05/23 09:33:01;;;;;;;4.63;4.23;;;;;;;30.56;31.73;99152.91;5071933;28;20220;-64
2023/05/23 09:35:28;;;;;;;9.43;6.63;;;;;;;30.57;31.62;99160.81;5072707;28;20302;-65
2023/05/23 09:37:58;;;;;;;8.90;6.47;;;;;;;30.44;30.81;99150.09;5071393;28;20741;-67
2023/05/23 09:40:29;;;;;;;8.30;6.70;;;;;;;30.20;30.34;99155.44;5071619;28;20188;-67
2023/05/23 09:43:02;;;;;;;23.27;13.13;;;;;;;30.23;31.73;99147.38;5071775;28;20203;-67
2023/05/23 09:45:30;;;;;;;26.73;8.60;;;;;;;30.23;30.16;99157.50;5072326;28;20187;-66
2023/05/23 09:47:58;;;;;;;14.93;8.30;;;;;;;30.07;31.19;99146.31;5070277;28;20580;-68
2023/05/23 09:50:30;;;;;;;15.73;4.47;;;;;;;30.08;30.69;99153.38;5070841;28;20656;-66
2023/05/23 09:52:57;;;;;;;28.10;15.93;;;;;;;29.92;32.43;99138.66;5072099;28;20196;-66
2023/05/23 09:55:24;;;;;;;6.80;5.93;;;;;;;29.75;30.95;99146.97;5071066;28;20211;-67
2023/05/23 09:57:55;;;;;;;14.20;12.13;;;;;;;29.80;33.61;99146.00;5068638;28;20192;-70
2023/05/23 10:00:23;;;;;;;17.27;11.30;;;;;;;29.92;33.62;99144.13;5068094;28;20238;-66
2023/05/23 10:02:55;;;;;;;7.43;6.87;;;;;;;30.05;33.29;99140.34;5070894;28;20198;-66
2023/05/23 10:05:36;;;;;;;11.63;5.70;;;;;;;30.19;32.13;99154.66;5070333;28;20748;-70
2023/05/23 10:08:08;;;;;;;6.23;4.07;;;;;;;29.98;30.49;99151.03;5066440;28;20713;-70
2023/05/23 10:10:50;;;;;;;8.10;6.57;;;;;;;29.62;32.40;99142.53;5070138;28;20188;-65
2023/05/23 10:13:18;;;;;;;7.10;3.47;;;;;;;29.68;31.02;99148.63;5065846;28;20234;-63
2023/05/23 10:15:47;;;;;;;8.30;3.33;;;;;;;29.48;30.53;99139.16;5068351;28;20226;-65
2023/05/23 10:18:21;;;;;;;4.23;3.30;;;;;;;29.61;31.53;99132.72;5065596;28;20756;-70
2023/05/23 10:20:54;;;;;;;5.97;3.70;;;;;;;29.69;31.83;99139.25;5068030;28;20230;-68
2023/05/23 10:23:21;;;;;;;23.97;6.53;;;;;;;29.67;32.23;99136.84;5067156;28;20572;-65
2023/05/23 10:25:48;;;;;;;13.87;4.20;;;;;;;29.41;31.57;99138.88;5067895;28;20275;-66
2023/05/23 10:28:15;;;;;;;4.70;3.87;;;;;;;29.19;31.69;99141.81;5067998;28;20261;-65
2023/05/23 10:30:44;;;;;;;5.47;3.77;;;;;;;29.07;30.97;99130.75;5067294;28;20241;-66
2023/05/23 10:33:15;;;;;;;17.53;4.60;;;;;;;29.18;32.96;99132.00;5070189;28;20277;-68
2023/05/23 10:35:56;;;;;;;9.13;3.40;;;;;;;29.26;31.18;99124.94;5069459;28;20290;-68
2023/05/23 10:38:34;;;;;;;5.23;4.83;;;;;;;29.26;35.59;99119.47;5067892;28;20229;-65
2023/05/23 10:41:09;;;;;;;7.03;4.23;;;;;;;29.26;33.02;99127.66;5068516;28;20196;-68
2023/05/23 10:43:44;;;;;;;3.20;3.00;;;;;;;29.20;30.40;99121.56;5058042;28;20214;-67
2023/05/23 10:46:13;;;;;;;6.23;4.20;;;;;;;29.23;32.25;99125.56;5069680;28;20625;-67
2023/05/23 10:48:41;;;;;;;3.60;3.23;;;;;;;29.08;31.44;99124.94;5067522;28;20724;-64
2023/05/23 10:51:10;;;;;;;4.37;3.80;;;;;;;29.13;32.53;99126.72;5068671;28;20246;-65
2023/05/23 10:53:41;;;;;;;3.23;3.00;;;;;;;29.46;31.73;99125.00;5068435;28;20192;-64
2023/05/23 10:56:09;;;;;;;4.13;3.80;;;;;;;29.80;33.09;99119.38;5067086;28;20683;-67
2023/05/23 10:58:38;;;;;;;3.73;3.23;;;;;;;30.21;31.61;99114.00;5065483;28;20279;-66
2023/05/23 11:01:07;;;;;;;3.73;3.30;;;;;;;30.47;31.06;99122.84;5067589;28;20276;-67
2023/05/23 11:03:35;;;;;;;9.23;3.83;;;;;;;30.73;30.33;99125.38;5067539;28;20196;-68
2023/05/23 11:06:03;;;;;;;7.73;3.43;;;;;;;30.58;30.43;99118.53;5063401;28;20219;-67
2023/05/23 11:08:40;;;;;;;4.83;3.70;;;;;;;30.58;31.13;99125.97;5065714;28;20200;-68
2023/05/23 11:11:08;;;;;;;16.93;5.13;;;;;;;30.76;30.21;99120.03;5067588;28;20188;-69
2023/05/23 11:13:58;;;;;;;5.73;4.03;;;;;;;30.86;29.77;99124.31;5067717;28;20619;-72
2023/05/23 11:16:30;;;;;;;4.43;3.60;;;;;;;30.82;31.02;99124.16;5060420;28;20287;-68
2023/05/23 11:19:24;;;;;;;8.73;4.00;;;;;;;30.77;30.60;99132.59;5067336;28;20192;-68
2023/05/23 11:21:54;;;;;;;4.67;3.97;;;;;;;30.50;32.14;99118.63;5066677;28;20204;-69
2023/05/23 11:24:22;;;;;;;7.60;4.13;;;;;;;30.40;30.83;99119.00;5067258;28;20672;-66
2023/05/23 11:26:54;;;;;;;7.93;4.40;;;;;;;30.36;31.32;99118.88;5055420;28;20201;-69
2023/05/23 11:29:21;;;;;;;4.90;3.73;;;;;;;30.28;31.58;99121.69;5066002;28;20997;-67
2023/05/23 11:31:47;;;;;;;4.20;3.77;;;;;;;30.21;31.83;99124.97;5066891;28;20204;-67
2023/05/23 11:34:14;;;;;;;6.40;5.60;;;;;;;30.23;35.14;99119.97;5066091;28;20792;-67
2023/05/23 11:36:41;;;;;;;8.13;4.77;;;;;;;30.30;34.50;99111.19;5065731;28;20196;-67
2023/05/23 11:39:08;;;;;;;7.63;4.20;;;;;;;30.35;32.34;99114.56;5068727;28;20646;-67
2023/05/23 11:41:36;;;;;;;4.83;3.53;;;;;;;30.46;32.50;99113.00;5069805;28;20220;-68
2023/05/23 11:44:11;;;;;;;4.53;3.97;;;;;;;30.38;33.87;99113.84;5069962;28;20204;-70
2023/05/23 11:46:39;;;;;;;4.27;3.97;;;;;;;30.32;32.13;99120.69;5066740;28;20659;-71
2023/05/23 11:49:10;;;;;;;6.00;3.47;;;;;;;30.32;32.05;99122.63;5069775;28;20207;-68
2023/05/23 11:51:37;;;;;;;13.07;4.23;;;;;;;30.24;31.14;99124.28;5070581;28;20192;-65
2023/05/23 11:54:05;;;;;;;4.00;3.63;;;;;;;30.14;32.35;99121.97;5070540;28;20721;-65
2023/05/23 11:56:38;;;;;;;7.10;3.43;;;;;;;30.31;30.70;99110.88;5069810;28;20199;-66
2023/05/23 11:59:06;;;;;;;6.20;3.43;;;;;;;30.33;30.13;99116.81;5070023;28;20192;-67
2023/05/23 12:01:33;;;;;;;7.10;3.30;;;;;;;29.72;35.87;99111.22;5071598;28;20196;-66
2023/05/23 12:04:00;;;;;;;4.03;2.80;;;;;;;27.99;40.93;99124.59;5071196;28;20652;-66
2023/05/23 12:06:26;;;;;;;7.97;3.20;;;;;;;27.91;41.45;99138.22;5071168;28;20199;-67
2023/05/23 12:08:53;;;;;;;7.13;3.30;;;;;;;28.11;41.67;99122.06;5066043;28;20250;-66
2023/05/23 12:11:21;;;;;;;3.70;3.23;;;;;;;27.94;42.17;99115.75;5069679;28;20250;-65
2023/05/23 12:13:48;;;;;;;3.40;2.70;;;;;;;26.75;43.45;99121.38;5070332;28;20192;-63
2023/05/23 12:16:16;;;;;;;4.93;2.60;;;;;;;27.17;41.42;99109.16;5070641;28;20224;-66
2023/05/23 12:18:43;;;;;;;7.43;2.80;;;;;;;26.96;43.01;99117.06;5070328;28;20196;-65
2023/05/23 12:21:10;;;;;;;4.00;3.23;;;;;;;27.13;42.64;99121.78;5068755;28;20192;-65
2023/05/23 12:23:37;;;;;;;3.33;3.03;;;;;;;27.16;41.02;99127.41;5069453;28;20261;-65
2023/05/23 12:26:06;;;;;;;3.17;2.97;;;;;;;26.67;41.69;99107.72;5069109;28;20246;-65
2023/05/23 12:28:37;;;;;;;4.60;2.57;;;;;;;26.92;43.56;99098.91;5069810;28;20275;-70